Aviation Digital Data Service (ADDS)

Output produced by METARs form (1644 UTC 23 September 2020)
found at http://aviationweather.gov/metar/data/
 
KBPT 231600Z 23009KT 10SM SCT007 BKN009 26/24 A2974 RMK AO2 T02560244
KBPT 231553Z 24010KT 10SM SCT007 BKN090 25/24 A2974 RMK AO2 SLP071 T02500244
KBPT 231409Z 2314/2412 23008KT P6SM VCSH SCT009 OVC013 
     TEMPO 2314/2318 VRB12G18KT 2SM SHRA OVC008 
     FM231800 29010G17KT P6SM VCSH OVC015 
     FM232100 33010KT P6SM OVC007 
     FM240100 34008KT P6SM BKN015 OVC025